sensor_id;sensor_type;location;lat;lon;timestamp;P1;durP1;ratioP1;P2;durP2;ratioP2
9960;SDS011;5021;51.506;11.320;2022-11-15T00:01:51;21.70;;;17.20;;
9960;SDS011;5021;51.506;11.320;2022-11-15T00:04:17;21.33;;;16.80;;
9960;SDS011;5021;51.506;11.320;2022-11-15T00:06:43;20.20;;;16.17;;
9960;SDS011;5021;51.506;11.320;2022-11-15T00:09:09;18.50;;;14.83;;
9960;SDS011;5021;51.506;11.320;2022-11-15T00:11:35;17.47;;;13.90;;
9960;SDS011;5021;51.506;11.320;2022-11-15T00:14:01;18.67;;;14.80;;
9960;SDS011;5021;51.506;11.320;2022-11-15T00:16:27;20.10;;;15.03;;
9960;SDS011;5021;51.506;11.320;2022-11-15T00:18:53;17.93;;;15.23;;
9960;SDS011;5021;51.506;11.320;2022-11-15T00:21:19;19.00;;;15.30;;
9960;SDS011;5021;51.506;11.320;2022-11-15T00:23:45;18.33;;;14.27;;
9960;SDS011;5021;51.506;11.320;2022-11-15T00:26:12;17.17;;;13.67;;
9960;SDS011;5021;51.506;11.320;2022-11-15T00:28:38;18.13;;;13.80;;
9960;SDS011;5021;51.506;11.320;2022-11-15T00:31:05;16.83;;;13.40;;
9960;SDS011;5021;51.506;11.320;2022-11-15T00:33:31;15.83;;;12.40;;
9960;SDS011;5021;51.506;11.320;2022-11-15T00:36:04;16.20;;;13.57;;
9960;SDS011;5021;51.506;11.320;2022-11-15T00:38:31;15.93;;;13.73;;
9960;SDS011;5021;51.506;11.320;2022-11-15T00:40:58;17.17;;;13.83;;
9960;SDS011;5021;51.506;11.320;2022-11-15T00:43:24;25.63;;;22.37;;
9960;SDS011;5021;51.506;11.320;2022-11-15T00:45:50;22.83;;;18.27;;
9960;SDS011;5021;51.506;11.320;2022-11-15T00:48:16;21.57;;;18.63;;
9960;SDS011;5021;51.506;11.320;2022-11-15T00:50:42;19.57;;;16.30;;
9960;SDS011;5021;51.506;11.320;2022-11-15T00:53:08;19.67;;;15.77;;
9960;SDS011;5021;51.506;11.320;2022-11-15T00:55:34;23.83;;;18.80;;
9960;SDS011;5021;51.506;11.320;2022-11-15T00:58:00;19.70;;;15.20;;
9960;SDS011;5021;51.506;11.320;2022-11-15T01:00:26;19.10;;;15.03;;
9960;SDS011;5021;51.506;11.320;2022-11-15T01:02:52;19.67;;;14.37;;
9960;SDS011;5021;51.506;11.320;2022-11-15T01:05:18;19.07;;;15.30;;
9960;SDS011;5021;51.506;11.320;2022-11-15T01:07:44;20.27;;;15.10;;
9960;SDS011;5021;51.506;11.320;2022-11-15T01:10:10;17.07;;;14.47;;
9960;SDS011;5021;51.506;11.320;2022-11-15T01:12:36;17.93;;;13.67;;
9960;SDS011;5021;51.506;11.320;2022-11-15T01:15:02;16.30;;;12.70;;
9960;SDS011;5021;51.506;11.320;2022-11-15T01:17:29;17.30;;;13.17;;
9960;SDS011;5021;51.506;11.320;2022-11-15T01:19:55;13.50;;;11.20;;
9960;SDS011;5021;51.506;11.320;2022-11-15T01:22:21;14.20;;;10.93;;
9960;SDS011;5021;51.506;11.320;2022-11-15T01:24:49;12.97;;;11.57;;
9960;SDS011;5021;51.506;11.320;2022-11-15T01:27:15;17.13;;;12.30;;
9960;SDS011;5021;51.506;11.320;2022-11-15T01:29:41;14.07;;;10.93;;
9960;SDS011;5021;51.506;11.320;2022-11-15T01:32:07;12.87;;;10.00;;
9960;SDS011;5021;51.506;11.320;2022-11-15T01:34:33;13.10;;;10.73;;
9960;SDS011;5021;51.506;11.320;2022-11-15T01:36:59;13.30;;;11.23;;
9960;SDS011;5021;51.506;11.320;2022-11-15T01:39:25;15.40;;;12.03;;
9960;SDS011;5021;51.506;11.320;2022-11-15T01:41:51;12.40;;;10.33;;
9960;SDS011;5021;51.506;11.320;2022-11-15T01:47:03;13.63;;;10.80;;
9960;SDS011;5021;51.506;11.320;2022-11-15T01:49:31;13.67;;;10.17;;
9960;SDS011;5021;51.506;11.320;2022-11-15T01:51:58;12.07;;;9.70;;
9960;SDS011;5021;51.506;11.320;2022-11-15T01:54:24;11.63;;;10.00;;
9960;SDS011;5021;51.506;11.320;2022-11-15T01:56:52;13.43;;;9.73;;
9960;SDS011;5021;51.506;11.320;2022-11-15T01:59:19;11.57;;;9.37;;
9960;SDS011;5021;51.506;11.320;2022-11-15T02:01:45;12.57;;;9.00;;
9960;SDS011;5021;51.506;11.320;2022-11-15T02:07:14;13.13;;;10.10;;
9960;SDS011;5021;51.506;11.320;2022-11-15T02:09:40;14.10;;;10.43;;
9960;SDS011;5021;51.506;11.320;2022-11-15T02:12:07;12.60;;;10.27;;
9960;SDS011;5021;51.506;11.320;2022-11-15T02:14:34;12.27;;;9.73;;
9960;SDS011;5021;51.506;11.320;2022-11-15T02:22:35;13.30;;;10.50;;
9960;SDS011;5021;51.506;11.320;2022-11-15T02:32:47;9.93;;;8.30;;
9960;SDS011;5021;51.506;11.320;2022-11-15T02:35:17;11.37;;;8.97;;
9960;SDS011;5021;51.506;11.320;2022-11-15T02:37:50;9.63;;;8.57;;
9960;SDS011;5021;51.506;11.320;2022-11-15T02:40:23;10.40;;;8.60;;
9960;SDS011;5021;51.506;11.320;2022-11-15T02:42:54;12.13;;;9.07;;
9960;SDS011;5021;51.506;11.320;2022-11-15T02:45:41;11.27;;;9.43;;
9960;SDS011;5021;51.506;11.320;2022-11-15T02:48:10;12.70;;;9.70;;
9960;SDS011;5021;51.506;11.320;2022-11-15T02:50:36;10.17;;;8.83;;
9960;SDS011;5021;51.506;11.320;2022-11-15T02:53:03;11.63;;;9.60;;
9960;SDS011;5021;51.506;11.320;2022-11-15T02:55:33;12.10;;;9.43;;
9960;SDS011;5021;51.506;11.320;2022-11-15T03:03:38;15.00;;;10.20;;
9960;SDS011;5021;51.506;11.320;2022-11-15T03:11:21;13.17;;;9.33;;
9960;SDS011;5021;51.506;11.320;2022-11-15T03:13:58;12.60;;;8.80;;
9960;SDS011;5021;51.506;11.320;2022-11-15T03:16:27;13.73;;;10.00;;
9960;SDS011;5021;51.506;11.320;2022-11-15T03:19:07;14.73;;;11.27;;
9960;SDS011;5021;51.506;11.320;2022-11-15T03:21:37;12.57;;;9.70;;
9960;SDS011;5021;51.506;11.320;2022-11-15T03:24:05;11.30;;;8.77;;
9960;SDS011;5021;51.506;11.320;2022-11-15T03:26:32;11.63;;;9.67;;
9960;SDS011;5021;51.506;11.320;2022-11-15T03:29:03;9.93;;;8.27;;
9960;SDS011;5021;51.506;11.320;2022-11-15T03:31:31;11.87;;;8.90;;
9960;SDS011;5021;51.506;11.320;2022-11-15T03:34:12;9.20;;;7.93;;
9960;SDS011;5021;51.506;11.320;2022-11-15T03:36:41;11.50;;;8.80;;
9960;SDS011;5021;51.506;11.320;2022-11-15T03:39:08;11.10;;;8.67;;
9960;SDS011;5021;51.506;11.320;2022-11-15T03:46:39;11.07;;;8.60;;
9960;SDS011;5021;51.506;11.320;2022-11-15T03:49:13;13.30;;;10.00;;
9960;SDS011;5021;51.506;11.320;2022-11-15T03:51:41;10.60;;;8.70;;
9960;SDS011;5021;51.506;11.320;2022-11-15T03:54:07;15.23;;;11.47;;
9960;SDS011;5021;51.506;11.320;2022-11-15T03:56:33;14.60;;;12.07;;
9960;SDS011;5021;51.506;11.320;2022-11-15T03:58:59;13.10;;;10.40;;
9960;SDS011;5021;51.506;11.320;2022-11-15T04:01:25;13.70;;;9.50;;
9960;SDS011;5021;51.506;11.320;2022-11-15T04:03:51;12.53;;;9.23;;
9960;SDS011;5021;51.506;11.320;2022-11-15T04:06:17;14.27;;;9.80;;
9960;SDS011;5021;51.506;11.320;2022-11-15T04:08:43;14.67;;;10.17;;
9960;SDS011;5021;51.506;11.320;2022-11-15T04:11:09;15.20;;;10.67;;
9960;SDS011;5021;51.506;11.320;2022-11-15T04:13:35;13.93;;;10.57;;
9960;SDS011;5021;51.506;11.320;2022-11-15T04:16:00;15.00;;;11.20;;
9960;SDS011;5021;51.506;11.320;2022-11-15T04:18:26;16.43;;;10.93;;
9960;SDS011;5021;51.506;11.320;2022-11-15T04:20:52;17.30;;;11.40;;
9960;SDS011;5021;51.506;11.320;2022-11-15T04:23:37;14.40;;;10.83;;
9960;SDS011;5021;51.506;11.320;2022-11-15T04:26:19;13.40;;;10.50;;
9960;SDS011;5021;51.506;11.320;2022-11-15T04:28:46;13.87;;;10.20;;
9960;SDS011;5021;51.506;11.320;2022-11-15T04:31:31;15.40;;;10.30;;
9960;SDS011;5021;51.506;11.320;2022-11-15T04:33:57;13.60;;;10.30;;
9960;SDS011;5021;51.506;11.320;2022-11-15T04:36:23;11.67;;;9.77;;
9960;SDS011;5021;51.506;11.320;2022-11-15T04:39:08;12.67;;;9.97;;
9960;SDS011;5021;51.506;11.320;2022-11-15T04:41:34;12.70;;;9.90;;
9960;SDS011;5021;51.506;11.320;2022-11-15T04:44:00;13.10;;;9.90;;
9960;SDS011;5021;51.506;11.320;2022-11-15T04:46:26;14.10;;;9.53;;
9960;SDS011;5021;51.506;11.320;2022-11-15T04:48:52;10.63;;;8.87;;
9960;SDS011;5021;51.506;11.320;2022-11-15T04:51:18;10.43;;;8.17;;
9960;SDS011;5021;51.506;11.320;2022-11-15T04:53:44;12.23;;;9.13;;
9960;SDS011;5021;51.506;11.320;2022-11-15T04:56:11;15.27;;;12.80;;
9960;SDS011;5021;51.506;11.320;2022-11-15T04:58:37;16.63;;;11.93;;
9960;SDS011;5021;51.506;11.320;2022-11-15T05:01:09;14.00;;;11.43;;
9960;SDS011;5021;51.506;11.320;2022-11-15T05:03:36;11.67;;;9.40;;
9960;SDS011;5021;51.506;11.320;2022-11-15T05:06:20;11.93;;;9.33;;
9960;SDS011;5021;51.506;11.320;2022-11-15T05:08:46;10.87;;;8.43;;
9960;SDS011;5021;51.506;11.320;2022-11-15T05:11:12;13.50;;;8.40;;
9960;SDS011;5021;51.506;11.320;2022-11-15T05:13:38;13.43;;;9.80;;
9960;SDS011;5021;51.506;11.320;2022-11-15T05:16:05;12.80;;;9.73;;
9960;SDS011;5021;51.506;11.320;2022-11-15T05:18:31;10.77;;;8.97;;
9960;SDS011;5021;51.506;11.320;2022-11-15T05:21:02;14.53;;;10.40;;
9960;SDS011;5021;51.506;11.320;2022-11-15T05:23:28;10.20;;;8.53;;
9960;SDS011;5021;51.506;11.320;2022-11-15T05:25:58;10.00;;;8.13;;
9960;SDS011;5021;51.506;11.320;2022-11-15T05:28:24;10.13;;;8.57;;
9960;SDS011;5021;51.506;11.320;2022-11-15T05:30:50;12.00;;;8.83;;
9960;SDS011;5021;51.506;11.320;2022-11-15T05:33:16;12.33;;;9.20;;
9960;SDS011;5021;51.506;11.320;2022-11-15T05:35:44;13.30;;;9.63;;
9960;SDS011;5021;51.506;11.320;2022-11-15T05:38:12;14.37;;;9.83;;
9960;SDS011;5021;51.506;11.320;2022-11-15T05:40:38;13.50;;;10.40;;
9960;SDS011;5021;51.506;11.320;2022-11-15T05:43:04;14.43;;;10.03;;
9960;SDS011;5021;51.506;11.320;2022-11-15T05:45:31;13.90;;;10.53;;
9960;SDS011;5021;51.506;11.320;2022-11-15T05:47:57;13.43;;;9.93;;
9960;SDS011;5021;51.506;11.320;2022-11-15T05:50:24;14.00;;;10.73;;
9960;SDS011;5021;51.506;11.320;2022-11-15T05:52:51;14.87;;;10.60;;
9960;SDS011;5021;51.506;11.320;2022-11-15T05:55:17;15.40;;;11.53;;
9960;SDS011;5021;51.506;11.320;2022-11-15T05:57:43;17.60;;;12.80;;
9960;SDS011;5021;51.506;11.320;2022-11-15T06:00:10;15.07;;;10.77;;
9960;SDS011;5021;51.506;11.320;2022-11-15T06:02:36;14.17;;;10.93;;
9960;SDS011;5021;51.506;11.320;2022-11-15T06:05:02;13.93;;;10.43;;
9960;SDS011;5021;51.506;11.320;2022-11-15T06:07:29;11.77;;;9.23;;
9960;SDS011;5021;51.506;11.320;2022-11-15T06:09:55;13.60;;;9.67;;
9960;SDS011;5021;51.506;11.320;2022-11-15T06:12:21;12.63;;;9.57;;
9960;SDS011;5021;51.506;11.320;2022-11-15T06:14:47;11.73;;;9.77;;
9960;SDS011;5021;51.506;11.320;2022-11-15T06:17:13;13.63;;;10.30;;
9960;SDS011;5021;51.506;11.320;2022-11-15T06:19:39;15.97;;;10.67;;
9960;SDS011;5021;51.506;11.320;2022-11-15T06:22:05;14.67;;;10.60;;
9960;SDS011;5021;51.506;11.320;2022-11-15T06:24:31;15.73;;;12.27;;
9960;SDS011;5021;51.506;11.320;2022-11-15T06:26:57;20.77;;;13.20;;
9960;SDS011;5021;51.506;11.320;2022-11-15T06:29:24;17.13;;;14.00;;
9960;SDS011;5021;51.506;11.320;2022-11-15T06:31:50;16.33;;;11.50;;
9960;SDS011;5021;51.506;11.320;2022-11-15T06:34:16;15.33;;;11.80;;
9960;SDS011;5021;51.506;11.320;2022-11-15T06:36:42;16.20;;;12.47;;
9960;SDS011;5021;51.506;11.320;2022-11-15T06:39:08;17.27;;;14.17;;
9960;SDS011;5021;51.506;11.320;2022-11-15T06:41:34;21.40;;;14.60;;
9960;SDS011;5021;51.506;11.320;2022-11-15T06:44:01;31.50;;;22.13;;
9960;SDS011;5021;51.506;11.320;2022-11-15T06:46:27;37.77;;;26.20;;
9960;SDS011;5021;51.506;11.320;2022-11-15T06:48:54;36.57;;;23.87;;
9960;SDS011;5021;51.506;11.320;2022-11-15T06:51:20;35.87;;;23.27;;
9960;SDS011;5021;51.506;11.320;2022-11-15T06:53:46;29.57;;;20.33;;
9960;SDS011;5021;51.506;11.320;2022-11-15T06:56:12;28.83;;;21.67;;
9960;SDS011;5021;51.506;11.320;2022-11-15T06:58:38;27.57;;;19.90;;
9960;SDS011;5021;51.506;11.320;2022-11-15T07:01:05;24.10;;;18.67;;
9960;SDS011;5021;51.506;11.320;2022-11-15T07:03:34;19.03;;;16.93;;
9960;SDS011;5021;51.506;11.320;2022-11-15T07:06:00;21.60;;;16.63;;
9960;SDS011;5021;51.506;11.320;2022-11-15T07:08:27;25.27;;;17.60;;
9960;SDS011;5021;51.506;11.320;2022-11-15T07:10:53;22.33;;;17.73;;
9960;SDS011;5021;51.506;11.320;2022-11-15T07:13:19;20.77;;;16.67;;
9960;SDS011;5021;51.506;11.320;2022-11-15T07:15:45;21.97;;;17.27;;
9960;SDS011;5021;51.506;11.320;2022-11-15T07:18:11;23.03;;;17.00;;
9960;SDS011;5021;51.506;11.320;2022-11-15T07:20:37;17.63;;;14.10;;
9960;SDS011;5021;51.506;11.320;2022-11-15T07:23:04;13.07;;;10.43;;
9960;SDS011;5021;51.506;11.320;2022-11-15T07:25:31;15.17;;;11.10;;
9960;SDS011;5021;51.506;11.320;2022-11-15T07:27:57;13.13;;;10.63;;
9960;SDS011;5021;51.506;11.320;2022-11-15T07:30:24;15.43;;;11.77;;
9960;SDS011;5021;51.506;11.320;2022-11-15T07:32:57;17.50;;;12.00;;
9960;SDS011;5021;51.506;11.320;2022-11-15T07:35:24;15.93;;;11.33;;
9960;SDS011;5021;51.506;11.320;2022-11-15T07:37:56;15.73;;;12.03;;
9960;SDS011;5021;51.506;11.320;2022-11-15T07:40:23;17.87;;;14.23;;
9960;SDS011;5021;51.506;11.320;2022-11-15T07:42:49;18.87;;;15.57;;
9960;SDS011;5021;51.506;11.320;2022-11-15T07:45:18;24.93;;;20.20;;
9960;SDS011;5021;51.506;11.320;2022-11-15T07:47:45;13.63;;;11.60;;
9960;SDS011;5021;51.506;11.320;2022-11-15T07:50:11;21.80;;;18.27;;
9960;SDS011;5021;51.506;11.320;2022-11-15T07:52:37;13.13;;;10.03;;
9960;SDS011;5021;51.506;11.320;2022-11-15T07:55:03;15.30;;;10.57;;
9960;SDS011;5021;51.506;11.320;2022-11-15T07:57:30;12.77;;;10.60;;
9960;SDS011;5021;51.506;11.320;2022-11-15T07:59:56;10.40;;;9.23;;
9960;SDS011;5021;51.506;11.320;2022-11-15T08:02:22;10.60;;;8.63;;
9960;SDS011;5021;51.506;11.320;2022-11-15T08:04:48;11.40;;;9.83;;
9960;SDS011;5021;51.506;11.320;2022-11-15T08:07:14;9.77;;;8.77;;
9960;SDS011;5021;51.506;11.320;2022-11-15T08:09:40;11.77;;;10.37;;
9960;SDS011;5021;51.506;11.320;2022-11-15T08:12:06;12.27;;;10.60;;
9960;SDS011;5021;51.506;11.320;2022-11-15T08:14:32;12.77;;;11.33;;
9960;SDS011;5021;51.506;11.320;2022-11-15T08:16:58;14.37;;;12.67;;
9960;SDS011;5021;51.506;11.320;2022-11-15T08:19:24;11.87;;;10.67;;
9960;SDS011;5021;51.506;11.320;2022-11-15T08:21:50;11.47;;;10.27;;
9960;SDS011;5021;51.506;11.320;2022-11-15T08:24:16;10.70;;;9.57;;
9960;SDS011;5021;51.506;11.320;2022-11-15T08:26:42;12.10;;;10.73;;
9960;SDS011;5021;51.506;11.320;2022-11-15T08:29:08;9.87;;;8.47;;
9960;SDS011;5021;51.506;11.320;2022-11-15T08:31:34;9.37;;;7.93;;
9960;SDS011;5021;51.506;11.320;2022-11-15T08:34:01;8.60;;;7.33;;
9960;SDS011;5021;51.506;11.320;2022-11-15T08:36:27;7.80;;;7.00;;
9960;SDS011;5021;51.506;11.320;2022-11-15T08:38:53;7.00;;;6.30;;
9960;SDS011;5021;51.506;11.320;2022-11-15T08:41:23;10.97;;;9.60;;
9960;SDS011;5021;51.506;11.320;2022-11-15T08:43:50;7.47;;;6.67;;
9960;SDS011;5021;51.506;11.320;2022-11-15T08:46:16;7.00;;;5.87;;
9960;SDS011;5021;51.506;11.320;2022-11-15T08:48:43;6.80;;;6.10;;
9960;SDS011;5021;51.506;11.320;2022-11-15T08:51:09;9.17;;;7.23;;
9960;SDS011;5021;51.506;11.320;2022-11-15T08:53:35;7.10;;;6.23;;
9960;SDS011;5021;51.506;11.320;2022-11-15T08:56:24;6.40;;;5.63;;
9960;SDS011;5021;51.506;11.320;2022-11-15T09:04:52;7.57;;;5.93;;
9960;SDS011;5021;51.506;11.320;2022-11-15T09:07:29;6.83;;;6.13;;
9960;SDS011;5021;51.506;11.320;2022-11-15T09:09:58;6.27;;;5.40;;
9960;SDS011;5021;51.506;11.320;2022-11-15T09:12:24;7.87;;;6.07;;
9960;SDS011;5021;51.506;11.320;2022-11-15T09:14:50;6.90;;;6.20;;
9960;SDS011;5021;51.506;11.320;2022-11-15T09:17:16;8.30;;;6.83;;
9960;SDS011;5021;51.506;11.320;2022-11-15T09:19:42;7.30;;;5.57;;
9960;SDS011;5021;51.506;11.320;2022-11-15T09:22:08;7.03;;;5.73;;
9960;SDS011;5021;51.506;11.320;2022-11-15T09:24:35;7.60;;;6.50;;
9960;SDS011;5021;51.506;11.320;2022-11-15T09:27:01;6.40;;;5.80;;
9960;SDS011;5021;51.506;11.320;2022-11-15T09:29:27;6.73;;;5.57;;
9960;SDS011;5021;51.506;11.320;2022-11-15T09:31:53;6.33;;;5.60;;
9960;SDS011;5021;51.506;11.320;2022-11-15T09:34:19;7.13;;;5.80;;
9960;SDS011;5021;51.506;11.320;2022-11-15T09:36:46;7.30;;;5.80;;
9960;SDS011;5021;51.506;11.320;2022-11-15T09:39:12;6.77;;;5.93;;
9960;SDS011;5021;51.506;11.320;2022-11-15T09:41:51;10.10;;;7.27;;
9960;SDS011;5021;51.506;11.320;2022-11-15T09:44:26;8.60;;;7.10;;
9960;SDS011;5021;51.506;11.320;2022-11-15T09:49:39;9.20;;;6.97;;
9960;SDS011;5021;51.506;11.320;2022-11-15T09:52:06;10.17;;;7.17;;
9960;SDS011;5021;51.506;11.320;2022-11-15T09:54:34;7.47;;;6.37;;
9960;SDS011;5021;51.506;11.320;2022-11-15T09:57:04;7.23;;;6.53;;
9960;SDS011;5021;51.506;11.320;2022-11-15T10:04:26;7.83;;;6.20;;
9960;SDS011;5021;51.506;11.320;2022-11-15T10:09:24;5.60;;;4.97;;
9960;SDS011;5021;51.506;11.320;2022-11-15T10:11:51;5.27;;;4.73;;
9960;SDS011;5021;51.506;11.320;2022-11-15T10:14:18;6.53;;;4.37;;
9960;SDS011;5021;51.506;11.320;2022-11-15T10:24:45;4.60;;;4.10;;
9960;SDS011;5021;51.506;11.320;2022-11-15T10:27:18;5.43;;;4.83;;
9960;SDS011;5021;51.506;11.320;2022-11-15T10:29:45;6.10;;;4.80;;
9960;SDS011;5021;51.506;11.320;2022-11-15T10:32:12;15.57;;;10.53;;
9960;SDS011;5021;51.506;11.320;2022-11-15T10:34:38;6.70;;;4.97;;
9960;SDS011;5021;51.506;11.320;2022-11-15T10:37:04;6.63;;;4.80;;
9960;SDS011;5021;51.506;11.320;2022-11-15T10:39:30;6.87;;;5.20;;
9960;SDS011;5021;51.506;11.320;2022-11-15T10:41:58;8.17;;;5.07;;
9960;SDS011;5021;51.506;11.320;2022-11-15T10:44:44;7.27;;;5.10;;
9960;SDS011;5021;51.506;11.320;2022-11-15T10:47:43;4.90;;;4.40;;
9960;SDS011;5021;51.506;11.320;2022-11-15T10:50:04;4.97;;;4.50;;
9960;SDS011;5021;51.506;11.320;2022-11-15T10:52:31;5.43;;;4.70;;
9960;SDS011;5021;51.506;11.320;2022-11-15T10:55:03;4.93;;;4.43;;
9960;SDS011;5021;51.506;11.320;2022-11-15T10:57:36;5.70;;;4.40;;
9960;SDS011;5021;51.506;11.320;2022-11-15T11:00:07;4.40;;;3.97;;
9960;SDS011;5021;51.506;11.320;2022-11-15T11:02:39;4.80;;;3.93;;
9960;SDS011;5021;51.506;11.320;2022-11-15T11:07:59;6.10;;;4.50;;
9960;SDS011;5021;51.506;11.320;2022-11-15T11:10:26;6.83;;;4.57;;
9960;SDS011;5021;51.506;11.320;2022-11-15T11:12:52;5.47;;;4.10;;
9960;SDS011;5021;51.506;11.320;2022-11-15T11:15:18;4.10;;;3.70;;
9960;SDS011;5021;51.506;11.320;2022-11-15T11:20:18;6.30;;;4.17;;
9960;SDS011;5021;51.506;11.320;2022-11-15T11:25:25;5.77;;;4.23;;
9960;SDS011;5021;51.506;11.320;2022-11-15T11:30:24;6.50;;;4.20;;
9960;SDS011;5021;51.506;11.320;2022-11-15T11:35:35;5.20;;;4.30;;
9960;SDS011;5021;51.506;11.320;2022-11-15T11:48:42;6.60;;;3.67;;
9960;SDS011;5021;51.506;11.320;2022-11-15T11:56:23;4.53;;;3.20;;
9960;SDS011;5021;51.506;11.320;2022-11-15T11:58:51;5.20;;;3.60;;
9960;SDS011;5021;51.506;11.320;2022-11-15T12:01:25;6.07;;;3.67;;
9960;SDS011;5021;51.506;11.320;2022-11-15T12:03:57;5.30;;;3.70;;
9960;SDS011;5021;51.506;11.320;2022-11-15T12:14:36;5.23;;;3.20;;
9960;SDS011;5021;51.506;11.320;2022-11-15T12:17:04;3.93;;;3.40;;
9960;SDS011;5021;51.506;11.320;2022-11-15T12:19:30;3.77;;;3.40;;
9960;SDS011;5021;51.506;11.320;2022-11-15T12:24:39;6.20;;;3.50;;
9960;SDS011;5021;51.506;11.320;2022-11-15T12:27:12;3.83;;;3.33;;
9960;SDS011;5021;51.506;11.320;2022-11-15T12:29:41;6.37;;;3.47;;
9960;SDS011;5021;51.506;11.320;2022-11-15T12:32:25;3.77;;;3.03;;
9960;SDS011;5021;51.506;11.320;2022-11-15T12:34:56;8.87;;;5.63;;
9960;SDS011;5021;51.506;11.320;2022-11-15T12:40:37;4.60;;;3.50;;
9960;SDS011;5021;51.506;11.320;2022-11-15T12:46:20;3.40;;;3.03;;
9960;SDS011;5021;51.506;11.320;2022-11-15T12:52:09;6.10;;;3.10;;
9960;SDS011;5021;51.506;11.320;2022-11-15T12:54:52;5.20;;;2.83;;
9960;SDS011;5021;51.506;11.320;2022-11-15T12:57:48;6.20;;;3.43;;
9960;SDS011;5021;51.506;11.320;2022-11-15T13:00:40;4.03;;;3.07;;
9960;SDS011;5021;51.506;11.320;2022-11-15T13:03:17;3.40;;;2.70;;
9960;SDS011;5021;51.506;11.320;2022-11-15T13:12:00;4.03;;;2.77;;
9960;SDS011;5021;51.506;11.320;2022-11-15T13:17:45;4.30;;;3.40;;
9960;SDS011;5021;51.506;11.320;2022-11-15T13:23:24;4.27;;;3.23;;
9960;SDS011;5021;51.506;11.320;2022-11-15T13:32:10;6.37;;;3.33;;
9960;SDS011;5021;51.506;11.320;2022-11-15T13:34:51;3.87;;;3.20;;
9960;SDS011;5021;51.506;11.320;2022-11-15T13:37:52;4.20;;;3.30;;
9960;SDS011;5021;51.506;11.320;2022-11-15T13:40:58;6.63;;;3.20;;
9960;SDS011;5021;51.506;11.320;2022-11-15T13:43:37;3.47;;;3.10;;
9960;SDS011;5021;51.506;11.320;2022-11-15T13:48:39;5.40;;;3.20;;
9960;SDS011;5021;51.506;11.320;2022-11-15T13:51:33;3.40;;;2.77;;
9960;SDS011;5021;51.506;11.320;2022-11-15T13:56:45;3.33;;;3.00;;
9960;SDS011;5021;51.506;11.320;2022-11-15T13:59:23;3.33;;;3.03;;
9960;SDS011;5021;51.506;11.320;2022-11-15T14:01:50;5.03;;;3.37;;
9960;SDS011;5021;51.506;11.320;2022-11-15T14:04:18;3.33;;;3.03;;
9960;SDS011;5021;51.506;11.320;2022-11-15T14:06:46;3.50;;;3.20;;
9960;SDS011;5021;51.506;11.320;2022-11-15T14:11:49;5.10;;;3.70;;
9960;SDS011;5021;51.506;11.320;2022-11-15T14:14:15;3.93;;;2.97;;
9960;SDS011;5021;51.506;11.320;2022-11-15T14:19:50;3.67;;;2.70;;
9960;SDS011;5021;51.506;11.320;2022-11-15T14:22:13;4.27;;;3.70;;
9960;SDS011;5021;51.506;11.320;2022-11-15T14:24:40;3.80;;;2.93;;
9960;SDS011;5021;51.506;11.320;2022-11-15T14:27:16;4.53;;;3.20;;
9960;SDS011;5021;51.506;11.320;2022-11-15T14:29:43;3.97;;;2.87;;
9960;SDS011;5021;51.506;11.320;2022-11-15T14:32:13;3.97;;;3.53;;
9960;SDS011;5021;51.506;11.320;2022-11-15T14:34:45;4.37;;;3.67;;
9960;SDS011;5021;51.506;11.320;2022-11-15T14:37:23;3.50;;;3.20;;
9960;SDS011;5021;51.506;11.320;2022-11-15T14:39:55;3.73;;;3.20;;
9960;SDS011;5021;51.506;11.320;2022-11-15T14:43:00;5.10;;;3.47;;
9960;SDS011;5021;51.506;11.320;2022-11-15T14:45:47;6.37;;;3.93;;
9960;SDS011;5021;51.506;11.320;2022-11-15T14:48:13;4.93;;;4.10;;
9960;SDS011;5021;51.506;11.320;2022-11-15T14:50:39;6.93;;;4.90;;
9960;SDS011;5021;51.506;11.320;2022-11-15T14:53:05;10.70;;;7.50;;
9960;SDS011;5021;51.506;11.320;2022-11-15T14:55:32;13.20;;;8.30;;
9960;SDS011;5021;51.506;11.320;2022-11-15T14:58:01;12.20;;;8.03;;
9960;SDS011;5021;51.506;11.320;2022-11-15T15:00:28;10.57;;;7.43;;
9960;SDS011;5021;51.506;11.320;2022-11-15T15:02:54;11.63;;;8.77;;
9960;SDS011;5021;51.506;11.320;2022-11-15T15:05:25;13.23;;;8.73;;
9960;SDS011;5021;51.506;11.320;2022-11-15T15:07:51;10.37;;;8.03;;
9960;SDS011;5021;51.506;11.320;2022-11-15T15:10:20;9.30;;;7.30;;
9960;SDS011;5021;51.506;11.320;2022-11-15T15:12:46;8.13;;;5.70;;
9960;SDS011;5021;51.506;11.320;2022-11-15T15:15:14;6.67;;;5.07;;
9960;SDS011;5021;51.506;11.320;2022-11-15T15:17:40;6.33;;;4.87;;
9960;SDS011;5021;51.506;11.320;2022-11-15T15:20:07;7.03;;;4.90;;
9960;SDS011;5021;51.506;11.320;2022-11-15T15:22:38;5.57;;;4.87;;
9960;SDS011;5021;51.506;11.320;2022-11-15T15:25:14;5.27;;;4.70;;
9960;SDS011;5021;51.506;11.320;2022-11-15T15:27:44;5.93;;;4.87;;
9960;SDS011;5021;51.506;11.320;2022-11-15T15:30:10;5.37;;;4.43;;
9960;SDS011;5021;51.506;11.320;2022-11-15T15:32:36;10.13;;;6.53;;
9960;SDS011;5021;51.506;11.320;2022-11-15T15:35:02;14.40;;;10.47;;
9960;SDS011;5021;51.506;11.320;2022-11-15T15:37:31;15.03;;;9.07;;
9960;SDS011;5021;51.506;11.320;2022-11-15T15:40:00;11.77;;;8.00;;
9960;SDS011;5021;51.506;11.320;2022-11-15T15:42:26;12.53;;;8.47;;
9960;SDS011;5021;51.506;11.320;2022-11-15T15:44:52;12.03;;;7.77;;
9960;SDS011;5021;51.506;11.320;2022-11-15T15:47:21;9.50;;;6.87;;
9960;SDS011;5021;51.506;11.320;2022-11-15T15:49:50;11.00;;;7.90;;
9960;SDS011;5021;51.506;11.320;2022-11-15T15:52:16;10.83;;;7.87;;
9960;SDS011;5021;51.506;11.320;2022-11-15T15:54:42;12.07;;;7.90;;
9960;SDS011;5021;51.506;11.320;2022-11-15T15:57:10;14.17;;;9.10;;
9960;SDS011;5021;51.506;11.320;2022-11-15T15:59:44;16.87;;;11.30;;
9960;SDS011;5021;51.506;11.320;2022-11-15T16:02:14;11.40;;;8.07;;
9960;SDS011;5021;51.506;11.320;2022-11-15T16:04:40;20.20;;;14.33;;
9960;SDS011;5021;51.506;11.320;2022-11-15T16:07:07;18.83;;;14.23;;
9960;SDS011;5021;51.506;11.320;2022-11-15T16:09:38;11.90;;;9.73;;
9960;SDS011;5021;51.506;11.320;2022-11-15T16:12:22;10.80;;;8.20;;
9960;SDS011;5021;51.506;11.320;2022-11-15T16:14:49;12.07;;;9.33;;
9960;SDS011;5021;51.506;11.320;2022-11-15T16:17:18;16.27;;;12.67;;
9960;SDS011;5021;51.506;11.320;2022-11-15T16:19:45;13.03;;;10.87;;
9960;SDS011;5021;51.506;11.320;2022-11-15T16:22:11;14.30;;;11.37;;
9960;SDS011;5021;51.506;11.320;2022-11-15T16:24:37;15.20;;;12.10;;
9960;SDS011;5021;51.506;11.320;2022-11-15T16:27:03;14.17;;;10.77;;
9960;SDS011;5021;51.506;11.320;2022-11-15T16:29:29;12.93;;;10.97;;
9960;SDS011;5021;51.506;11.320;2022-11-15T16:31:55;20.80;;;17.63;;
9960;SDS011;5021;51.506;11.320;2022-11-15T16:34:21;18.80;;;16.73;;
9960;SDS011;5021;51.506;11.320;2022-11-15T16:36:47;27.20;;;21.53;;
9960;SDS011;5021;51.506;11.320;2022-11-15T16:39:13;26.00;;;20.23;;
9960;SDS011;5021;51.506;11.320;2022-11-15T16:41:42;22.77;;;18.13;;
9960;SDS011;5021;51.506;11.320;2022-11-15T16:44:11;34.50;;;25.47;;
9960;SDS011;5021;51.506;11.320;2022-11-15T16:46:37;22.37;;;19.00;;
9960;SDS011;5021;51.506;11.320;2022-11-15T16:49:08;22.73;;;18.63;;
9960;SDS011;5021;51.506;11.320;2022-11-15T16:51:37;25.23;;;20.30;;
9960;SDS011;5021;51.506;11.320;2022-11-15T16:54:03;39.67;;;26.43;;
9960;SDS011;5021;51.506;11.320;2022-11-15T16:56:29;60.83;;;41.07;;
9960;SDS011;5021;51.506;11.320;2022-11-15T16:58:56;47.93;;;32.33;;
9960;SDS011;5021;51.506;11.320;2022-11-15T17:01:25;51.73;;;35.00;;
9960;SDS011;5021;51.506;11.320;2022-11-15T17:03:52;54.97;;;35.70;;
9960;SDS011;5021;51.506;11.320;2022-11-15T17:06:18;47.47;;;29.03;;
9960;SDS011;5021;51.506;11.320;2022-11-15T17:08:45;26.03;;;17.37;;
9960;SDS011;5021;51.506;11.320;2022-11-15T17:11:16;26.03;;;14.97;;
9960;SDS011;5021;51.506;11.320;2022-11-15T17:13:42;22.63;;;14.30;;